Ontonagon, MI (49953)

3:36 PM EST on December 09, 2016 (GMT -0500)
South side of town | | Change Station
Active Advisory: Lake Effect Snow Warning

Elev 1473 ft 46.87 °N, 89.31 °W | Updated 47 seconds ago

Overcast
Overcast
19.2 °F
Feels Like 11 °F
N
6.0
Wind Variable Wind from SW

Today
High -- | Low -- °F
--% Chance of Precip.
Yesterday
High -- | Low -- °F
Precip. -- in
Pressure 30.40 in
Visibility 9.0 miles
Clouds Overcast 4100 ft
Windchill 11 °F
Dew Point 15 °F
Humidity 85%
Rainfall 0.00 in
Snow Depth Not available.
8:31 AM 5:08 PM
Waxing Gibbous, 77% visible
METAR KCMX 091953Z AUTO 33009KT 9SM -SN OVC041 M08/M14 A3033 RMK AO2 SNE10B46 SLP293 P0000 T10781139
Pressure 30.40 in
Visibility 9.0 miles
Clouds Overcast 4100 ft
Windchill 11 °F
Dew Point 15 °F
Humidity 85%
Rainfall 0.00 in
Snow Depth Not available.
8:31 AM 5:08 PM
Waxing Gibbous, 77% visible
METAR KCMX 091953Z AUTO 33009KT 9SM -SN OVC041 M08/M14 A3033 RMK AO2 SNE10B46 SLP293 P0000 T10781139

10-Day Weather Forecast

Almanac

Astronomy

Dec. 09, 2016 Rise Set
Actual Time
Civil Twilight
Nautical Twilight
Astronomical Twilight
Moon
Length of Visible Light
Length of Day
Tomorrow will be .
, % of the Moon is Illuminated

Today's Extremes

State Highs State Lows

Community

WunderPhotos

Upload Photos

1,956,517 photos uploaded!

WunderBlog® & News

Nearby

Air Quality

  Air Quality AQ Index Pollutant
Not available.

Snow Depth

Station Depth Elevation

Earthquake Activity

City Distance Mag. Time & Date
Minimum magnitude displayed is 2.5.

Coastal Water Temperatures

Place Temperature

Stations

Nearby Weather Stations

Station Location Temp. Windchill Dew Point Humidity Wind Precip. Elev Updated Type
                   

Watches & Warnings

Lake Effect Snow Warning
Issued: 3:18 PM EST Dec. 9, 2016 – National Weather Service

... Lake effect snow warning now in effect until 7 PM EST
Saturday...

Hazardous weather...

* lake effect snow will increase through the night over northern
   sections of Ontonagon County. Snow showers should gradually end
   over southern portions of the County tonight.

* Heavy snow showers are expected over northern Ontonagon County
   tonight with additional snow amounts of 6 to 12 inches. The
   heaviest bands of snow will affect Silver City... Ontonagon... Mass
   City and Greenland. Less than an inch of snow will occur over
   southern Ontonagon County... including at Bruce Crossing and
   Paulding. Another 4 to 7 inches of snow could occur over northern
   Ontonagon County on Saturday.

Impacts...

* roads will be snow covered and slippery.

* Moderate to heavy snow will reduce visibilities to less than one-
   quarter mile... especially tonight into Saturday morning over
   northern Ontonagon County.

Precautionary/preparedness actions...

* a lake effect snow warning means significant amounts of lake-
   effect snow are forecast that will make travel very hazardous
   or impossible.

* Prepare... plan... and stay informed. Visit www.Weather.Gov/MQT